Time;durP1;ratioP1;P1;durP2;ratioP2;P2;SDS_P1;SDS_P2;PMS_P1;PMS_P2;Temp;Humidity;BMP_temperature;BMP_pressure;BME280_temperature;BME280_humidity;BME280_pressure;Samples;Min_cycle;Max_cycle;Signal;HPM_P1;HPM_P2
2023/04/12 00:02:21;;;;;;;4.28;1.27;;;;;;;;;;8347303;28;20028;-72
2023/04/12 00:06:31;;;;;;;2.47;0.97;;;;;;;;;;8331301;28;20546;-73
2023/04/12 00:10:31;;;;;;;6.38;1.60;;;;;;;;;;8330219;28;20082;-73
2023/04/12 00:14:31;;;;;;;6.25;1.30;;;;;;;;;;8353571;28;20545;-72
2023/04/12 00:18:31;;;;;;;3.95;1.15;;;;;;;;;;8332440;28;20752;-72
2023/04/12 00:22:31;;;;;;;3.95;1.30;;;;;;;;;;8349214;28;20104;-72
2023/04/12 00:26:32;;;;;;;7.00;1.50;;;;;;;;;;8349032;28;20111;-72
2023/04/12 00:30:32;;;;;;;2.70;1.10;;;;;;;;;;8346767;28;20935;-73
2023/04/12 00:34:32;;;;;;;6.20;1.40;;;;;;;;;;8350565;28;20398;-72
2023/04/12 00:38:32;;;;;;;6.18;1.55;;;;;;;;;;8346974;28;20021;-72
2023/04/12 00:42:33;;;;;;;5.00;1.25;;;;;;;;;;8349325;28;20820;-72
2023/04/12 00:46:34;;;;;;;2.30;1.00;;;;;;;;;;8352628;28;21011;-72
2023/04/12 00:50:34;;;;;;;3.75;1.15;;;;;;;;;;8354899;28;20024;-72
2023/04/12 00:54:35;;;;;;;3.67;1.57;;;;;;;;;;8353970;28;20020;-72
2023/04/12 00:58:35;;;;;;;2.97;1.20;;;;;;;;;;8355832;28;20274;-72
2023/04/12 01:02:37;;;;;;;2.45;1.00;;;;;;;;;;8355157;28;20062;-72
2023/04/12 01:07:00;;;;;;;2.28;0.90;;;;;;;;;;8352635;28;20022;-72
2023/04/12 01:11:19;;;;;;;3.70;1.27;;;;;;;;;;8348492;28;20032;-72
2023/04/12 01:15:23;;;;;;;2.40;1.17;;;;;;;;;;8352730;28;20028;-72
2023/04/12 01:19:44;;;;;;;4.72;1.20;;;;;;;;;;8353779;28;20393;-72
2023/04/12 01:24:12;;;;;;;2.95;1.40;;;;;;;;;;8328074;28;20066;-72
2023/04/12 01:28:19;;;;;;;5.88;1.42;;;;;;;;;;8350517;28;20039;-72
2023/04/12 01:32:20;;;;;;;2.90;1.00;;;;;;;;;;8354470;28;20074;-72
2023/04/12 01:36:21;;;;;;;6.28;1.30;;;;;;;;;;8354511;28;20564;-72
2023/04/12 01:40:22;;;;;;;5.32;1.42;;;;;;;;;;8362616;28;20039;-72
2023/04/12 01:44:22;;;;;;;3.13;1.27;;;;;;;;;;8362550;28;20020;-72
2023/04/12 01:48:22;;;;;;;4.57;1.37;;;;;;;;;;8349912;28;20279;-72
2023/04/12 01:52:23;;;;;;;2.42;1.50;;;;;;;;;;8350522;28;20302;-72
2023/04/12 01:56:25;;;;;;;4.30;1.30;;;;;;;;;;8353745;28;20037;-72
2023/04/12 02:00:26;;;;;;;4.80;1.20;;;;;;;;;;8350649;28;20040;-72
2023/04/12 02:04:26;;;;;;;4.40;1.38;;;;;;;;;;8335629;28;20138;-72
2023/04/12 02:08:26;;;;;;;4.88;1.50;;;;;;;;;;8351464;28;20025;-72
2023/04/12 02:12:27;;;;;;;4.05;1.38;;;;;;;;;;8361983;28;20021;-72
2023/04/12 02:16:31;;;;;;;5.88;1.52;;;;;;;;;;8361168;28;20725;-72
2023/04/12 02:20:31;;;;;;;2.38;1.30;;;;;;;;;;8340314;28;20320;-72
2023/04/12 02:24:31;;;;;;;4.20;1.20;;;;;;;;;;8352638;28;20029;-72
2023/04/12 02:28:33;;;;;;;3.28;1.08;;;;;;;;;;8355218;28;20020;-72
2023/04/12 02:32:42;;;;;;;2.70;1.23;;;;;;;;;;8332475;28;20064;-73
2023/04/12 02:36:46;;;;;;;4.90;1.33;;;;;;;;;;8333840;28;20497;-72
2023/04/12 02:40:46;;;;;;;3.95;1.27;;;;;;;;;;8323756;28;20021;-72
2023/04/12 02:44:47;;;;;;;4.43;1.40;;;;;;;;;;8351217;28;20078;-72
2023/04/12 02:48:47;;;;;;;2.67;1.23;;;;;;;;;;8351047;28;20467;-72
2023/04/12 02:52:47;;;;;;;4.82;1.48;;;;;;;;;;8337763;28;20374;-72
2023/04/12 02:56:48;;;;;;;2.35;1.25;;;;;;;;;;8355595;28;20021;-73
2023/04/12 03:00:48;;;;;;;2.72;1.30;;;;;;;;;;8337491;28;20045;-72
2023/04/12 03:04:49;;;;;;;2.95;1.38;;;;;;;;;;8328875;28;20536;-72
2023/04/12 03:08:50;;;;;;;2.90;1.27;;;;;;;;;;8327453;28;20035;-72
2023/04/12 03:12:50;;;;;;;4.13;1.10;;;;;;;;;;8361151;28;20084;-72
2023/04/12 03:16:52;;;;;;;3.33;1.25;;;;;;;;;;8350455;28;20156;-73
2023/04/12 03:20:52;;;;;;;7.07;2.53;;;;;;;;;;8350376;28;20101;-72
2023/04/12 03:24:52;;;;;;;15.98;4.28;;;;;;;;;;8357701;28;20077;-72
2023/04/12 03:28:58;;;;;;;13.32;3.65;;;;;;;;;;8348853;28;20428;-72
2023/04/12 03:32:58;;;;;;;6.43;2.00;;;;;;;;;;8332281;28;20044;-71
2023/04/12 03:37:01;;;;;;;5.45;2.30;;;;;;;;;;8338075;28;20028;-71
2023/04/12 03:41:01;;;;;;;3.47;1.48;;;;;;;;;;8349931;28;20555;-72
2023/04/12 03:45:02;;;;;;;5.00;1.30;;;;;;;;;;8351054;28;20032;-72
2023/04/12 03:49:02;;;;;;;5.63;1.60;;;;;;;;;;8349347;28;20036;-72
2023/04/12 03:53:02;;;;;;;2.90;1.40;;;;;;;;;;8337070;28;20624;-72
2023/04/12 03:57:03;;;;;;;5.05;1.70;;;;;;;;;;8350934;28;21090;-72
2023/04/12 04:01:06;;;;;;;5.60;1.58;;;;;;;;;;8328458;28;20044;-72
2023/04/12 04:05:06;;;;;;;3.60;1.70;;;;;;;;;;8355830;28;20026;-72
2023/04/12 04:09:07;;;;;;;3.33;1.50;;;;;;;;;;8347806;28;20373;-71
2023/04/12 04:13:07;;;;;;;3.47;1.45;;;;;;;;;;8348624;28;20039;-72
2023/04/12 04:17:07;;;;;;;1.40;1.30;;;;;;;;;;8354178;28;20052;-71
2023/04/12 04:21:07;;;;;;;3.75;2.00;;;;;;;;;;8347175;28;20037;-72
2023/04/12 04:25:08;;;;;;;3.28;2.30;;;;;;;;;;8348712;28;20821;-72
2023/04/12 04:29:08;;;;;;;6.18;3.42;;;;;;;;;;8346893;28;20064;-71
2023/04/12 04:33:08;;;;;;;4.00;1.75;;;;;;;;;;8351928;28;20094;-72
2023/04/12 04:37:09;;;;;;;2.67;1.65;;;;;;;;;;8348965;28;20369;-72
2023/04/12 04:41:09;;;;;;;2.72;1.83;;;;;;;;;;8348409;28;20035;-72
2023/04/12 04:45:13;;;;;;;2.37;1.70;;;;;;;;;;8346200;28;20047;-72
2023/04/12 04:49:13;;;;;;;4.97;2.10;;;;;;;;;;8349246;28;20279;-72
2023/04/12 04:53:16;;;;;;;4.10;1.90;;;;;;;;;;8346366;28;20733;-72
2023/04/12 04:57:16;;;;;;;3.70;1.55;;;;;;;;;;8346085;28;20024;-72
2023/04/12 05:01:16;;;;;;;3.78;1.80;;;;;;;;;;8352316;28;20346;-72
2023/04/12 05:05:16;;;;;;;2.00;1.85;;;;;;;;;;8346211;28;20142;-71
2023/04/12 05:09:17;;;;;;;3.97;2.13;;;;;;;;;;8348126;28;20047;-71
2023/04/12 05:13:17;;;;;;;2.22;1.73;;;;;;;;;;8348731;28;20275;-71
2023/04/12 05:17:17;;;;;;;3.88;2.13;;;;;;;;;;8347482;28;20033;-72
2023/04/12 05:21:18;;;;;;;3.40;2.30;;;;;;;;;;8346801;28;20064;-71
2023/04/12 05:25:19;;;;;;;4.80;2.90;;;;;;;;;;8349396;28;20780;-72
2023/04/12 05:29:19;;;;;;;2.38;1.92;;;;;;;;;;8344109;28;20024;-71
2023/04/12 05:33:19;;;;;;;2.70;2.28;;;;;;;;;;8350741;28;20368;-72
2023/04/12 05:37:20;;;;;;;4.50;2.47;;;;;;;;;;8350937;28;20028;-72
2023/04/12 05:41:20;;;;;;;2.92;2.40;;;;;;;;;;8334454;28;20038;-72
2023/04/12 05:45:20;;;;;;;3.47;2.28;;;;;;;;;;8351776;28;20034;-72
2023/04/12 05:49:20;;;;;;;5.35;2.40;;;;;;;;;;8352458;28;20035;-72
2023/04/12 05:53:21;;;;;;;3.83;3.08;;;;;;;;;;8351118;28;20699;-72
2023/04/12 05:57:21;;;;;;;3.83;2.80;;;;;;;;;;8351859;28;20028;-72
2023/04/12 06:01:21;;;;;;;4.38;2.35;;;;;;;;;;8333729;28;20124;-72
2023/04/12 06:05:22;;;;;;;1.83;1.70;;;;;;;;;;8339150;28;20036;-72
2023/04/12 06:09:22;;;;;;;2.33;1.90;;;;;;;;;;8351414;28;20491;-72
2023/04/12 06:13:22;;;;;;;3.38;2.45;;;;;;;;;;8351227;28;20083;-72
2023/04/12 06:17:22;;;;;;;3.55;2.15;;;;;;;;;;8352485;28;20839;-72
2023/04/12 06:21:23;;;;;;;3.67;1.83;;;;;;;;;;8351101;28;20498;-72
2023/04/12 06:25:23;;;;;;;1.33;1.23;;;;;;;;;;8351725;28;21144;-72
2023/04/12 06:29:24;;;;;;;1.90;1.60;;;;;;;;;;8332174;28;20029;-72
2023/04/12 06:33:25;;;;;;;1.63;1.50;;;;;;;;;;8346737;28;20537;-72
2023/04/12 06:37:25;;;;;;;1.95;1.40;;;;;;;;;;8352724;28;20056;-72
2023/04/12 06:41:25;;;;;;;2.22;1.70;;;;;;;;;;8350332;28;20040;-72
2023/04/12 06:45:26;;;;;;;1.80;1.40;;;;;;;;;;8351186;28;20036;-72
2023/04/12 06:49:26;;;;;;;2.83;1.45;;;;;;;;;;8333979;28;20024;-72
2023/04/12 06:53:26;;;;;;;2.33;1.40;;;;;;;;;;8349986;28;20146;-72
2023/04/12 06:57:26;;;;;;;1.52;1.40;;;;;;;;;;8345794;28;20048;-72
2023/04/12 07:01:27;;;;;;;2.55;1.23;;;;;;;;;;8349500;28;20528;-72
2023/04/12 07:05:27;;;;;;;2.13;1.50;;;;;;;;;;8349926;28;20071;-72
2023/04/12 07:09:30;;;;;;;4.22;1.83;;;;;;;;;;8349475;28;20032;-72
2023/04/12 07:13:31;;;;;;;3.00;2.15;;;;;;;;;;8350224;28;20032;-72
2023/04/12 07:17:31;;;;;;;1.85;1.30;;;;;;;;;;8349661;28;20039;-72
2023/04/12 07:21:31;;;;;;;7.00;1.45;;;;;;;;;;8349529;28;20210;-72
2023/04/12 07:25:31;;;;;;;5.25;1.40;;;;;;;;;;8351205;28;20029;-72
2023/04/12 07:29:31;;;;;;;3.85;1.55;;;;;;;;;;8335268;28;20016;-72
2023/04/12 07:33:33;;;;;;;1.88;1.67;;;;;;;;;;8348283;28;20040;-72
2023/04/12 07:37:34;;;;;;;1.95;1.60;;;;;;;;;;8350613;28;20028;-73
2023/04/12 07:41:34;;;;;;;2.97;1.67;;;;;;;;;;8346889;28;20012;-72
2023/04/12 07:45:35;;;;;;;19.63;2.85;;;;;;;;;;8334618;28;20135;-71
2023/04/12 07:49:36;;;;;;;2.75;2.00;;;;;;;;;;8344494;28;20114;-72
2023/04/12 07:53:36;;;;;;;9.30;4.90;;;;;;;;;;8348521;28;20093;-72
2023/04/12 07:57:36;;;;;;;2.92;2.22;;;;;;;;;;8313687;28;20017;-72
2023/04/12 08:01:37;;;;;;;12.27;7.13;;;;;;;;;;8347377;28;20117;-72
2023/04/12 08:05:37;;;;;;;5.30;2.13;;;;;;;;;;8346819;28;20285;-72
2023/04/12 08:09:37;;;;;;;2.40;2.20;;;;;;;;;;8325454;28;20028;-72
2023/04/12 08:13:37;;;;;;;4.43;3.65;;;;;;;;;;8345725;28;20300;-72
2023/04/12 08:17:37;;;;;;;3.38;1.55;;;;;;;;;;8338351;28;20029;-72
2023/04/12 08:21:38;;;;;;;2.75;1.88;;;;;;;;;;8347449;28;20016;-72
2023/04/12 08:25:38;;;;;;;1.60;1.50;;;;;;;;;;8347903;28;20028;-72
2023/04/12 08:29:38;;;;;;;4.22;1.70;;;;;;;;;;8348282;28;20016;-72
2023/04/12 08:33:39;;;;;;;5.18;2.20;;;;;;;;;;8344699;28;20656;-73
2023/04/12 08:37:39;;;;;;;3.75;2.58;;;;;;;;;;8338498;28;20020;-73
2023/04/12 08:41:40;;;;;;;5.78;3.63;;;;;;;;;;8346882;28;20021;-72
2023/04/12 08:45:40;;;;;;;4.25;2.40;;;;;;;;;;8347918;28;20817;-73
2023/04/12 08:49:40;;;;;;;3.17;1.90;;;;;;;;;;8337845;28;20020;-73
2023/04/12 08:53:40;;;;;;;2.00;1.80;;;;;;;;;;8348448;28;20263;-73
2023/04/12 08:57:41;;;;;;;2.38;1.70;;;;;;;;;;8338623;28;20623;-73
2023/04/12 09:01:41;;;;;;;3.15;2.08;;;;;;;;;;8346003;28;20055;-73
2023/04/12 09:05:42;;;;;;;3.13;1.45;;;;;;;;;;8328357;28;20139;-74
2023/04/12 09:09:43;;;;;;;4.43;1.30;;;;;;;;;;8352800;28;20073;-73
2023/04/12 09:13:43;;;;;;;1.42;1.08;;;;;;;;;;8348591;28;20059;-73
2023/04/12 09:17:44;;;;;;;1.48;1.10;;;;;;;;;;8351687;28;20062;-73
2023/04/12 09:21:52;;;;;;;2.72;1.10;;;;;;;;;;8354422;28;20099;-73
2023/04/12 09:25:52;;;;;;;1.73;1.10;;;;;;;;;;8354979;28;20067;-73
2023/04/12 09:30:11;;;;;;;0.90;0.90;;;;;;;;;;8351041;28;20016;-74
2023/04/12 09:34:11;;;;;;;2.17;0.90;;;;;;;;;;8354049;28;20059;-73
2023/04/12 09:38:12;;;;;;;1.45;1.10;;;;;;;;;;8326090;28;20318;-73
2023/04/12 09:42:14;;;;;;;2.55;1.02;;;;;;;;;;8353407;28;20028;-73
2023/04/12 09:46:15;;;;;;;1.75;0.93;;;;;;;;;;8353225;28;20040;-73
2023/04/12 09:50:22;;;;;;;0.95;0.93;;;;;;;;;;8352114;28;21031;-73
2023/04/12 09:54:22;;;;;;;1.33;0.85;;;;;;;;;;8351257;28;20048;-73
2023/04/12 09:58:23;;;;;;;1.95;0.98;;;;;;;;;;8335957;28;20673;-73
2023/04/12 10:02:26;;;;;;;1.03;0.80;;;;;;;;;;8343466;28;20040;-73
2023/04/12 10:06:26;;;;;;;1.57;0.90;;;;;;;;;;8356305;28;20429;-72
2023/04/12 10:10:26;;;;;;;1.07;0.80;;;;;;;;;;8354171;28;20020;-72
2023/04/12 10:14:27;;;;;;;0.80;0.80;;;;;;;;;;8352682;28;20083;-72
2023/04/12 10:18:28;;;;;;;0.63;0.63;;;;;;;;;;8350942;28;20048;-73
2023/04/12 10:22:28;;;;;;;1.15;0.70;;;;;;;;;;8354081;28;20041;-73
2023/04/12 10:26:29;;;;;;;2.10;1.00;;;;;;;;;;8353188;28;20047;-73
2023/04/12 10:30:30;;;;;;;1.13;1.00;;;;;;;;;;8351350;28;20786;-73
2023/04/12 10:34:30;;;;;;;0.85;0.68;;;;;;;;;;8352886;28;20016;-73
2023/04/12 10:38:45;;;;;;;0.80;0.80;;;;;;;;;;8325490;28;20546;-73
2023/04/12 10:42:45;;;;;;;0.80;0.80;;;;;;;;;;8352748;28;20044;-73
2023/04/12 10:46:45;;;;;;;0.70;0.70;;;;;;;;;;8350830;28;20033;-72
2023/04/12 10:50:46;;;;;;;1.55;0.90;;;;;;;;;;8333514;28;20108;-73
2023/04/12 10:54:46;;;;;;;0.50;0.50;;;;;;;;;;8352685;28;20962;-73
2023/04/12 10:58:46;;;;;;;1.90;0.65;;;;;;;;;;8332709;28;20051;-72
2023/04/12 11:03:16;;;;;;;1.00;0.65;;;;;;;;;;8349806;28;20772;-72
2023/04/12 11:07:17;;;;;;;3.58;0.98;;;;;;;;;;8333421;28;20044;-72
2023/04/12 11:11:18;;;;;;;1.10;0.80;;;;;;;;;;8342807;28;20207;-73
2023/04/12 11:15:18;;;;;;;1.00;0.90;;;;;;;;;;8349896;28;20098;-73
2023/04/12 11:19:18;;;;;;;1.65;0.90;;;;;;;;;;8330347;28;20028;-73
2023/04/12 11:23:20;;;;;;;0.60;0.60;;;;;;;;;;8327866;28;20031;-73
2023/04/12 11:27:21;;;;;;;0.65;0.65;;;;;;;;;;8322205;28;20515;-73
2023/04/12 11:31:22;;;;;;;0.73;0.73;;;;;;;;;;8350152;28;20058;-75
2023/04/12 11:35:26;;;;;;;0.80;0.80;;;;;;;;;;8343582;28;20024;-73
2023/04/12 11:39:27;;;;;;;1.13;0.60;;;;;;;;;;8336531;28;20140;-72
2023/04/12 11:43:28;;;;;;;0.50;0.50;;;;;;;;;;8346731;28;20115;-73
2023/04/12 11:47:28;;;;;;;0.55;0.55;;;;;;;;;;8345614;28;20075;-73
2023/04/12 11:51:30;;;;;;;1.20;0.73;;;;;;;;;;8348895;28;20035;-73
2023/04/12 11:55:30;;;;;;;1.17;0.70;;;;;;;;;;8337904;28;20036;-73
2023/04/12 11:59:31;;;;;;;0.60;0.60;;;;;;;;;;8332702;28;20023;-73
2023/04/12 12:03:32;;;;;;;0.50;0.50;;;;;;;;;;8341501;28;21597;-73
2023/04/12 12:07:33;;;;;;;0.47;0.47;;;;;;;;;;8344949;28;20747;-73
2023/04/12 12:11:33;;;;;;;0.70;0.65;;;;;;;;;;8341310;28;20131;-73
2023/04/12 12:15:33;;;;;;;0.63;0.63;;;;;;;;;;8346406;28;20040;-73
2023/04/12 12:19:38;;;;;;;1.63;0.80;;;;;;;;;;8347400;28;20493;-73
2023/04/12 12:23:38;;;;;;;1.40;0.70;;;;;;;;;;8347196;28;20736;-73
2023/04/12 12:27:41;;;;;;;1.73;0.85;;;;;;;;;;8340715;28;20622;-73
2023/04/12 12:31:46;;;;;;;2.30;0.80;;;;;;;;;;8344843;28;20047;-73
2023/04/12 12:35:47;;;;;;;1.42;0.80;;;;;;;;;;8327410;28;20094;-73
2023/04/12 12:40:15;;;;;;;1.50;1.00;;;;;;;;;;8340871;28;20489;-73
2023/04/12 12:44:15;;;;;;;2.00;1.10;;;;;;;;;;8342243;28;20031;-73
2023/04/12 12:48:18;;;;;;;1.90;1.10;;;;;;;;;;8344700;28;20056;-73
2023/04/12 12:52:18;;;;;;;2.22;1.27;;;;;;;;;;8343009;28;20120;-72
2023/04/12 12:56:18;;;;;;;1.52;0.80;;;;;;;;;;8344836;28;20064;-73
2023/04/12 13:00:20;;;;;;;2.15;0.63;;;;;;;;;;8337628;28;20568;-73
2023/04/12 13:04:21;;;;;;;2.05;0.70;;;;;;;;;;8342922;28;20052;-72
2023/04/12 13:08:21;;;;;;;3.80;0.77;;;;;;;;;;8345074;28;20044;-73
2023/04/12 13:12:21;;;;;;;1.10;0.70;;;;;;;;;;8343413;28;20025;-72
2023/04/12 13:16:21;;;;;;;0.75;0.60;;;;;;;;;;8345304;28;20029;-72
2023/04/12 13:20:22;;;;;;;1.15;0.70;;;;;;;;;;8326655;28;20043;-72
2023/04/12 13:24:22;;;;;;;0.57;0.57;;;;;;;;;;8340959;28;20033;-73
2023/04/12 13:28:22;;;;;;;1.50;0.50;;;;;;;;;;8327531;28;20805;-73
2023/04/12 13:32:22;;;;;;;0.63;0.55;;;;;;;;;;8339958;28;20275;-72
2023/04/12 13:36:22;;;;;;;0.47;0.40;;;;;;;;;;8333437;28;20086;-72
2023/04/12 13:40:23;;;;;;;1.23;0.55;;;;;;;;;;8343914;28;20031;-72
2023/04/12 13:44:23;;;;;;;0.85;0.30;;;;;;;;;;8329093;28;20017;-72
2023/04/12 13:48:23;;;;;;;0.40;0.40;;;;;;;;;;8326961;28;20607;-73
2023/04/12 13:52:23;;;;;;;0.70;0.40;;;;;;;;;;8338541;28;20017;-72
2023/04/12 13:56:24;;;;;;;0.40;0.40;;;;;;;;;;8344839;28;20361;-73
2023/04/12 14:00:24;;;;;;;0.50;0.50;;;;;;;;;;8347702;28;20036;-72
2023/04/12 14:04:28;;;;;;;0.90;0.60;;;;;;;;;;8348174;28;20031;-72
2023/04/12 14:08:28;;;;;;;1.25;0.60;;;;;;;;;;8329008;28;21104;-73
2023/04/12 14:12:29;;;;;;;1.23;0.50;;;;;;;;;;8351486;28;20016;-72
2023/04/12 14:16:29;;;;;;;0.73;0.50;;;;;;;;;;8350108;28;20097;-72
2023/04/12 14:20:29;;;;;;;0.40;0.40;;;;;;;;;;8347595;28;22322;-72
2023/04/12 14:24:30;;;;;;;1.00;0.60;;;;;;;;;;8350317;28;20036;-72
2023/04/12 14:28:30;;;;;;;1.02;0.60;;;;;;;;;;8329812;28;20120;-72
2023/04/12 14:32:30;;;;;;;0.50;0.50;;;;;;;;;;8331556;28;20251;-72
2023/04/12 14:36:32;;;;;;;0.60;0.60;;;;;;;;;;8348825;28;20024;-72
2023/04/12 14:40:32;;;;;;;0.93;0.60;;;;;;;;;;8348403;28;20559;-72
2023/04/12 14:44:32;;;;;;;0.80;0.65;;;;;;;;;;8325554;28;20016;-72
2023/04/12 14:48:32;;;;;;;0.67;0.67;;;;;;;;;;8346254;28;20039;-73
2023/04/12 14:52:33;;;;;;;0.60;0.60;;;;;;;;;;8337536;28;20271;-73
2023/04/12 14:56:35;;;;;;;0.63;0.50;;;;;;;;;;8351286;28;20032;-72
2023/04/12 15:00:36;;;;;;;0.70;0.60;;;;;;;;;;8330467;28;20036;-73
2023/04/12 15:04:36;;;;;;;0.50;0.50;;;;;;;;;;8348776;28;20020;-73
2023/04/12 15:08:40;;;;;;;1.80;0.60;;;;;;;;;;8349896;28;20114;-73
2023/04/12 15:12:41;;;;;;;1.15;0.65;;;;;;;;;;8330293;28;20994;-74
2023/04/12 15:16:41;;;;;;;1.33;0.60;;;;;;;;;;8334379;28;20037;-73
2023/04/12 15:20:41;;;;;;;0.50;0.50;;;;;;;;;;8332908;28;20139;-73
2023/04/12 15:24:42;;;;;;;0.68;0.50;;;;;;;;;;8350502;28;20029;-73
2023/04/12 15:28:42;;;;;;;0.40;0.40;;;;;;;;;;8350687;28;20024;-72
2023/04/12 15:32:42;;;;;;;0.40;0.40;;;;;;;;;;8348693;28;20055;-72
2023/04/12 15:36:42;;;;;;;1.60;0.60;;;;;;;;;;8350851;28;20077;-72
2023/04/12 15:40:43;;;;;;;1.27;0.50;;;;;;;;;;8348935;28;20031;-73
2023/04/12 15:44:44;;;;;;;0.63;0.40;;;;;;;;;;8349535;28;20058;-73
2023/04/12 15:48:44;;;;;;;0.50;0.50;;;;;;;;;;8349787;28;20130;-72
2023/04/12 15:52:45;;;;;;;1.38;0.40;;;;;;;;;;8332580;28;20096;-72
2023/04/12 15:56:45;;;;;;;0.57;0.50;;;;;;;;;;8347431;28;20226;-72
2023/04/12 16:00:46;;;;;;;0.55;0.55;;;;;;;;;;8320520;28;20044;-72
2023/04/12 16:04:47;;;;;;;1.65;0.63;;;;;;;;;;8347268;28;20035;-72
2023/04/12 16:08:48;;;;;;;0.80;0.60;;;;;;;;;;8348478;28;20023;-72
2023/04/12 16:12:48;;;;;;;0.82;0.50;;;;;;;;;;8349361;28;20114;-73
2023/04/12 16:16:49;;;;;;;0.80;0.50;;;;;;;;;;8345542;28;20343;-73
2023/04/12 16:20:50;;;;;;;0.73;0.50;;;;;;;;;;8330317;28;20017;-72
2023/04/12 16:24:51;;;;;;;0.57;0.50;;;;;;;;;;8347658;28;20666;-72
2023/04/12 16:28:51;;;;;;;0.73;0.50;;;;;;;;;;8348943;28;20495;-72
2023/04/12 16:32:52;;;;;;;0.90;0.55;;;;;;;;;;8346713;28;20044;-72
2023/04/12 16:36:52;;;;;;;0.77;0.50;;;;;;;;;;8346138;28;20128;-72
2023/04/12 16:40:52;;;;;;;0.50;0.50;;;;;;;;;;8344072;28;20071;-72
2023/04/12 16:44:53;;;;;;;0.93;0.52;;;;;;;;;;8346767;28;20557;-72
2023/04/12 16:48:53;;;;;;;0.87;0.70;;;;;;;;;;8346236;28;20472;-73
2023/04/12 16:52:54;;;;;;;0.35;0.35;;;;;;;;;;8327823;28;20665;-73
2023/04/12 16:56:56;;;;;;;0.63;0.50;;;;;;;;;;8329392;28;20017;-72
2023/04/12 17:00:56;;;;;;;1.50;0.57;;;;;;;;;;8327868;28;20033;-73
2023/04/12 17:04:56;;;;;;;0.60;0.60;;;;;;;;;;8346075;28;20027;-72
2023/04/12 17:08:57;;;;;;;2.63;0.55;;;;;;;;;;8347860;28;20066;-72
2023/04/12 17:12:57;;;;;;;0.43;0.40;;;;;;;;;;8326828;28;20048;-73
2023/04/12 17:16:57;;;;;;;1.85;0.50;;;;;;;;;;8347011;28;20050;-73
2023/04/12 17:20:57;;;;;;;3.07;0.63;;;;;;;;;;8346851;28;20028;-72
2023/04/12 17:24:58;;;;;;;2.08;0.60;;;;;;;;;;8341381;28;20034;-72
2023/04/12 17:28:59;;;;;;;0.57;0.52;;;;;;;;;;8328926;28;20094;-72
2023/04/12 17:33:00;;;;;;;0.50;0.50;;;;;;;;;;8352049;28;20037;-72
2023/04/12 17:37:00;;;;;;;0.60;0.55;;;;;;;;;;8333104;28;20032;-73
2023/04/12 17:41:01;;;;;;;0.83;0.70;;;;;;;;;;8353857;28;20028;-73
2023/04/12 17:45:01;;;;;;;1.85;0.80;;;;;;;;;;8333623;28;20119;-72
2023/04/12 17:49:04;;;;;;;0.40;0.40;;;;;;;;;;8334403;28;20040;-72
2023/04/12 17:53:04;;;;;;;0.50;0.50;;;;;;;;;;8352696;28;20722;-72
2023/04/12 17:57:04;;;;;;;1.13;0.70;;;;;;;;;;8350443;28;20024;-74
2023/04/12 18:01:05;;;;;;;0.63;0.50;;;;;;;;;;8352008;28;21058;-74
2023/04/12 18:05:06;;;;;;;0.98;0.70;;;;;;;;;;8331357;28;20082;-73
2023/04/12 18:09:12;;;;;;;0.70;0.70;;;;;;;;;;8351705;28;20024;-73
2023/04/12 18:13:12;;;;;;;2.45;0.77;;;;;;;;;;8333474;28;20017;-73
2023/04/12 18:17:13;;;;;;;1.17;0.80;;;;;;;;;;8350762;28;20036;-73
2023/04/12 18:21:14;;;;;;;0.50;0.50;;;;;;;;;;8344041;28;20028;-73
2023/04/12 18:25:16;;;;;;;1.58;0.75;;;;;;;;;;8346232;28;20052;-73
2023/04/12 18:29:16;;;;;;;1.73;0.80;;;;;;;;;;8343714;28;20025;-73
2023/04/12 18:33:16;;;;;;;1.33;0.77;;;;;;;;;;8348192;28;20037;-73
2023/04/12 18:37:17;;;;;;;0.73;0.52;;;;;;;;;;8329146;28;20048;-73
2023/04/12 18:41:17;;;;;;;1.63;0.60;;;;;;;;;;8346851;28;20024;-73
2023/04/12 18:45:18;;;;;;;0.50;0.50;;;;;;;;;;8343542;28;20110;-73
2023/04/12 18:49:18;;;;;;;1.63;0.60;;;;;;;;;;8344833;28;20874;-73
2023/04/12 18:53:19;;;;;;;0.50;0.50;;;;;;;;;;8345905;28;20020;-73
2023/04/12 18:57:19;;;;;;;0.82;0.70;;;;;;;;;;8346094;28;20103;-73
2023/04/12 19:01:20;;;;;;;0.57;0.50;;;;;;;;;;8344232;28;20097;-72
2023/04/12 19:05:20;;;;;;;1.30;0.68;;;;;;;;;;8328264;28;20024;-73
2023/04/12 19:09:20;;;;;;;0.80;0.55;;;;;;;;;;8342164;28;20029;-73
2023/04/12 19:13:21;;;;;;;0.88;0.68;;;;;;;;;;8342735;28;20135;-73
2023/04/12 19:17:26;;;;;;;0.82;0.50;;;;;;;;;;8344502;28;20032;-73
2023/04/12 19:21:30;;;;;;;1.95;0.50;;;;;;;;;;8319542;28;20033;-73
2023/04/12 19:25:31;;;;;;;0.60;0.60;;;;;;;;;;8339358;28;20724;-73
2023/04/12 19:29:31;;;;;;;0.50;0.50;;;;;;;;;;8343835;28;20047;-73
2023/04/12 19:33:32;;;;;;;1.27;0.60;;;;;;;;;;8343785;28;20033;-73
2023/04/12 19:37:33;;;;;;;1.20;0.70;;;;;;;;;;8346503;28;20051;-73
2023/04/12 19:41:33;;;;;;;0.50;0.45;;;;;;;;;;8346229;28;20095;-72
2023/04/12 19:45:34;;;;;;;0.40;0.40;;;;;;;;;;8326869;28;20163;-73
2023/04/12 19:49:34;;;;;;;2.65;0.63;;;;;;;;;;8341649;28;20134;-73
2023/04/12 19:53:35;;;;;;;0.57;0.40;;;;;;;;;;8342796;28;20086;-73
2023/04/12 19:57:36;;;;;;;0.40;0.40;;;;;;;;;;8342770;28;20030;-73
2023/04/12 20:01:49;;;;;;;0.82;0.60;;;;;;;;;;8343843;28;20044;-73
2023/04/12 20:05:49;;;;;;;1.00;0.50;;;;;;;;;;8345523;28;20056;-74
2023/04/12 20:09:49;;;;;;;3.13;0.60;;;;;;;;;;8342574;28;20021;-73
2023/04/12 20:13:50;;;;;;;0.30;0.30;;;;;;;;;;8339513;28;20031;-73
2023/04/12 20:17:50;;;;;;;1.05;0.57;;;;;;;;;;8325331;28;20406;-73
2023/04/12 20:21:51;;;;;;;0.65;0.50;;;;;;;;;;8341189;28;20686;-73
2023/04/12 20:25:51;;;;;;;0.50;0.50;;;;;;;;;;8345483;28;20087;-73
2023/04/12 20:29:54;;;;;;;0.43;0.43;;;;;;;;;;8343053;28;20227;-73
2023/04/12 20:33:55;;;;;;;0.75;0.50;;;;;;;;;;8340098;28;20040;-72
2023/04/12 20:37:56;;;;;;;0.70;0.47;;;;;;;;;;8347247;28;20024;-72
2023/04/12 20:41:59;;;;;;;0.40;0.40;;;;;;;;;;8345999;28;20024;-73
2023/04/12 20:46:00;;;;;;;0.60;0.60;;;;;;;;;;8325290;28;20041;-73
2023/04/12 20:50:01;;;;;;;1.40;0.55;;;;;;;;;;8340592;28;20138;-73
2023/04/12 20:54:01;;;;;;;1.48;0.70;;;;;;;;;;8330975;28;20025;-73
2023/04/12 20:58:02;;;;;;;1.23;0.70;;;;;;;;;;8337392;28;20020;-73
2023/04/12 21:02:02;;;;;;;1.00;0.60;;;;;;;;;;8323594;28;20147;-73
2023/04/12 21:06:04;;;;;;;0.57;0.57;;;;;;;;;;8334580;28;20359;-73
2023/04/12 21:10:04;;;;;;;0.85;0.50;;;;;;;;;;8352568;28;20019;-73
2023/04/12 21:14:05;;;;;;;0.60;0.60;;;;;;;;;;8347983;28;20028;-72
2023/04/12 21:18:06;;;;;;;2.05;0.60;;;;;;;;;;8347219;28;20037;-73
2023/04/12 21:22:07;;;;;;;2.33;0.60;;;;;;;;;;8352511;28;20629;-73
2023/04/12 21:26:07;;;;;;;2.63;0.60;;;;;;;;;;8350939;28;20026;-73
2023/04/12 21:30:11;;;;;;;1.48;0.80;;;;;;;;;;8347849;28;20107;-73
2023/04/12 21:34:11;;;;;;;1.10;0.65;;;;;;;;;;8350832;28;20050;-73
2023/04/12 21:38:11;;;;;;;2.05;0.60;;;;;;;;;;8349550;28;20040;-73
2023/04/12 21:42:12;;;;;;;0.70;0.70;;;;;;;;;;8353301;28;20025;-73
2023/04/12 21:46:12;;;;;;;0.98;0.75;;;;;;;;;;8337840;28;21023;-73
2023/04/12 21:50:13;;;;;;;1.60;0.80;;;;;;;;;;8350264;28;20025;-73
2023/04/12 21:54:14;;;;;;;0.95;0.60;;;;;;;;;;8332902;28;20398;-73
2023/04/12 21:58:15;;;;;;;0.60;0.60;;;;;;;;;;8349505;28;20020;-73
2023/04/12 22:02:15;;;;;;;1.23;0.68;;;;;;;;;;8351325;28;20048;-73
2023/04/12 22:06:18;;;;;;;1.83;0.82;;;;;;;;;;8354824;28;20539;-73
2023/04/12 22:10:19;;;;;;;1.73;0.70;;;;;;;;;;8356813;28;20586;-73
2023/04/12 22:14:19;;;;;;;0.80;0.70;;;;;;;;;;8349822;28;20020;-73
2023/04/12 22:18:19;;;;;;;1.30;0.80;;;;;;;;;;8331562;28;21012;-73
2023/04/12 22:22:20;;;;;;;2.33;0.77;;;;;;;;;;8350151;28;20039;-73
2023/04/12 22:26:20;;;;;;;2.97;0.88;;;;;;;;;;8348730;28;20024;-72
2023/04/12 22:30:21;;;;;;;3.72;0.95;;;;;;;;;;8348037;28;20425;-73
2023/04/12 22:34:22;;;;;;;1.15;0.70;;;;;;;;;;8350625;28;20036;-73
2023/04/12 22:38:23;;;;;;;0.65;0.55;;;;;;;;;;8348889;28;20021;-73
2023/04/12 22:42:25;;;;;;;0.63;0.63;;;;;;;;;;8348306;28;20897;-73
2023/04/12 22:46:25;;;;;;;1.30;0.60;;;;;;;;;;8348882;28;20032;-73
2023/04/12 22:50:25;;;;;;;0.60;0.60;;;;;;;;;;8351241;28;20024;-73
2023/04/12 22:54:26;;;;;;;1.08;0.77;;;;;;;;;;8351707;28;20055;-73
2023/04/12 22:58:26;;;;;;;1.85;0.80;;;;;;;;;;8345770;28;20037;-73
2023/04/12 23:02:26;;;;;;;3.50;0.65;;;;;;;;;;8347081;28;20154;-73
2023/04/12 23:06:28;;;;;;;0.53;0.53;;;;;;;;;;8328399;28;20546;-73
2023/04/12 23:10:28;;;;;;;0.45;0.45;;;;;;;;;;8331928;28;20275;-73
2023/04/12 23:14:29;;;;;;;4.15;0.88;;;;;;;;;;8330622;28;20028;-73
2023/04/12 23:18:30;;;;;;;0.40;0.40;;;;;;;;;;8347827;28;20074;-73
2023/04/12 23:22:37;;;;;;;3.35;0.70;;;;;;;;;;8347636;28;20547;-73
2023/04/12 23:26:37;;;;;;;1.23;0.52;;;;;;;;;;8344452;28;20033;-73
2023/04/12 23:30:38;;;;;;;0.88;0.57;;;;;;;;;;8347874;28;20545;-73
2023/04/12 23:34:38;;;;;;;1.23;0.80;;;;;;;;;;8346116;28;20028;-73
2023/04/12 23:38:39;;;;;;;1.38;0.70;;;;;;;;;;8326196;28;20024;-73
2023/04/12 23:42:40;;;;;;;2.00;0.75;;;;;;;;;;8348110;28;20054;-73
2023/04/12 23:46:41;;;;;;;3.03;0.70;;;;;;;;;;8349937;28;20381;-73
2023/04/12 23:50:44;;;;;;;1.45;0.80;;;;;;;;;;8347362;28;20044;-73
2023/04/12 23:54:44;;;;;;;1.27;0.68;;;;;;;;;;8348136;28;20873;-73
2023/04/12 23:58:44;;;;;;;1.13;0.75;;;;;;;;;;8345826;28;20043;-73
